createdAt,value
2023-04-09T00:01:09.255Z,99.90
2023-04-09T00:06:01.471Z,99.90
2023-04-09T00:10:54.398Z,99.90
2023-04-09T00:15:47.624Z,99.90
2023-04-09T00:20:39.641Z,99.90
2023-04-09T00:25:31.712Z,99.90
2023-04-09T00:30:23.878Z,99.90
2023-04-09T00:35:17.496Z,99.90
2023-04-09T00:40:12.326Z,99.90
2023-04-09T00:45:05.372Z,99.90
2023-04-09T00:49:58.368Z,99.90
2023-04-09T00:54:53.562Z,99.90
2023-04-09T00:59:46.075Z,99.90
2023-04-09T01:04:40.639Z,99.90
2023-04-09T01:15:25.580Z,99.90
2023-04-09T01:20:33.291Z,99.90
2023-04-09T01:25:53.253Z,99.90
2023-04-09T01:30:50.422Z,99.90
2023-04-09T01:35:47.635Z,99.90
2023-04-09T01:40:41.595Z,99.90
2023-04-09T01:45:35.056Z,99.90
2023-04-09T01:50:28.182Z,99.90
2023-04-09T01:55:20.298Z,99.90
2023-04-09T02:00:14.169Z,99.90
2023-04-09T02:05:14.412Z,99.90
2023-04-09T02:10:08.600Z,99.90
2023-04-09T02:15:03.150Z,99.90
2023-04-09T02:19:55.484Z,99.90
2023-04-09T02:24:47.725Z,99.90
2023-04-09T02:29:41.629Z,99.90
2023-04-09T02:34:33.654Z,99.90
2023-04-09T02:39:26.074Z,99.90
2023-04-09T02:44:18.181Z,99.90
2023-04-09T02:49:10.229Z,99.90
2023-04-09T02:54:02.758Z,99.90
2023-04-09T02:58:55.358Z,99.90
2023-04-09T03:03:47.669Z,99.90
2023-04-09T03:08:39.842Z,99.90
2023-04-09T03:13:32.088Z,99.90
2023-04-09T03:18:24.075Z,99.90
2023-04-09T03:23:16.163Z,99.90
2023-04-09T03:28:13.094Z,99.90
2023-04-09T03:33:14.986Z,99.90
2023-04-09T03:38:15.765Z,99.90
2023-04-09T03:43:07.708Z,99.90
2023-04-09T03:48:03.054Z,99.90
2023-04-09T03:52:55.183Z,99.90
2023-04-09T03:57:48.787Z,99.90
2023-04-09T04:02:44.383Z,99.90
2023-04-09T04:07:37.172Z,99.90
2023-04-09T04:12:36.902Z,99.90
2023-04-09T04:17:33.118Z,99.90
2023-04-09T04:22:28.815Z,99.90
2023-04-09T04:27:24.736Z,99.90
2023-04-09T04:32:17.603Z,99.90
2023-04-09T04:37:09.928Z,99.90
2023-04-09T04:42:04.792Z,99.90
2023-04-09T04:46:57.434Z,99.90
2023-04-09T04:51:49.570Z,99.90
2023-04-09T04:56:42.365Z,99.90
2023-04-09T05:02:00.615Z,99.90
2023-04-09T05:06:56.153Z,99.90
2023-04-09T05:11:50.108Z,99.90
2023-04-09T05:16:45.736Z,99.90
2023-04-09T05:21:40.322Z,99.90
2023-04-09T05:26:32.680Z,99.90
2023-04-09T05:31:25.593Z,99.90
2023-04-09T05:36:23.547Z,99.90
2023-04-09T05:41:17.739Z,99.90
2023-04-09T05:46:48.235Z,99.90
2023-04-09T05:51:44.501Z,99.90
2023-04-09T05:56:43.314Z,99.90
2023-04-09T06:01:35.531Z,99.90
2023-04-09T06:06:28.926Z,99.90
2023-04-09T06:11:22.916Z,99.90
2023-04-09T06:16:16.283Z,99.90
2023-04-09T06:21:09.218Z,99.90
2023-04-09T06:26:02.837Z,96.70
2023-04-09T06:30:55.486Z,85.90
2023-04-09T06:35:48.711Z,75.80
2023-04-09T06:40:42.310Z,68.70
2023-04-09T06:45:34.673Z,67.60
2023-04-09T06:50:27.283Z,61.70
2023-04-09T06:55:19.503Z,62.80
2023-04-09T07:00:12.231Z,60.60
2023-04-09T07:05:05.113Z,57.10
2023-04-09T07:09:57.091Z,54.50
2023-04-09T07:14:49.090Z,53.70
2023-04-09T07:19:41.092Z,52.90
2023-04-09T07:24:33.047Z,51.40
2023-04-09T07:29:25.025Z,54.20
2023-04-09T07:34:17.037Z,56.20
2023-04-09T07:39:09.127Z,56.30
2023-04-09T07:44:03.379Z,54.80
2023-04-09T07:48:55.544Z,54.00
2023-04-09T07:53:47.668Z,50.60
2023-04-09T07:58:39.680Z,51.90
2023-04-09T08:03:32.009Z,51.30
2023-04-09T08:08:24.112Z,51.00
2023-04-09T08:13:16.130Z,48.70
2023-04-09T08:18:08.265Z,48.50
2023-04-09T08:23:00.325Z,49.90
2023-04-09T08:27:52.275Z,52.60
2023-04-09T08:32:45.643Z,55.70
2023-04-09T08:37:37.654Z,52.90
2023-04-09T08:42:31.798Z,50.60
2023-04-09T08:47:24.528Z,50.20
2023-04-09T08:52:19.137Z,51.00
2023-04-09T08:57:11.080Z,53.60
2023-04-09T09:02:12.723Z,54.00
2023-04-09T09:07:06.905Z,52.80
2023-04-09T09:11:58.862Z,53.40
2023-04-09T09:16:56.652Z,52.70
2023-04-09T09:21:59.950Z,54.10
2023-04-09T09:26:52.743Z,55.20
2023-04-09T09:31:49.391Z,55.70
2023-04-09T09:36:41.408Z,53.90
2023-04-09T09:41:33.451Z,52.10
2023-04-09T09:46:26.538Z,53.30
2023-04-09T09:51:19.690Z,55.70
2023-04-09T09:56:16.886Z,56.00
2023-04-09T10:01:12.188Z,55.10
2023-04-09T10:06:04.664Z,52.20
2023-04-09T10:10:56.816Z,53.50
2023-04-09T10:15:49.674Z,53.40
2023-04-09T10:20:49.239Z,50.20
2023-04-09T10:25:42.277Z,50.10
2023-04-09T10:30:37.720Z,48.50
2023-04-09T10:35:30.945Z,51.20
2023-04-09T10:40:22.953Z,52.10
2023-04-09T10:45:16.875Z,53.10
2023-04-09T10:50:30.840Z,56.70
2023-04-09T10:55:37.161Z,58.40
2023-04-09T11:00:29.216Z,59.30
2023-04-09T11:05:36.509Z,60.30
2023-04-09T11:10:28.524Z,60.50
2023-04-09T11:15:21.220Z,60.10
2023-04-09T11:20:18.332Z,62.20
2023-04-09T11:25:10.497Z,60.70
2023-04-09T11:30:02.487Z,60.40
2023-04-09T11:34:57.157Z,61.40
2023-04-09T11:39:55.627Z,61.20
2023-04-09T11:44:50.382Z,61.00
2023-04-09T11:49:42.575Z,62.10
2023-04-09T11:54:34.858Z,62.40
2023-04-09T11:59:26.991Z,61.50
2023-04-09T12:04:22.339Z,62.80
2023-04-09T12:09:14.970Z,62.70
2023-04-09T12:14:06.919Z,61.30
2023-04-09T12:19:09.670Z,60.10
2023-04-09T12:24:01.654Z,61.10
2023-04-09T12:28:53.882Z,60.60
2023-04-09T12:33:46.130Z,59.10
2023-04-09T12:38:38.207Z,60.20
2023-04-09T12:43:30.466Z,60.80
2023-04-09T12:48:22.443Z,63.70
2023-04-09T12:53:14.478Z,64.00
2023-04-09T12:58:06.567Z,65.60
2023-04-09T13:02:58.602Z,66.60
2023-04-09T13:07:51.447Z,68.10
2023-04-09T13:12:45.922Z,66.50
2023-04-09T13:17:37.917Z,67.80
2023-04-09T13:22:29.985Z,68.40
2023-04-09T13:27:22.128Z,69.30
2023-04-09T13:32:14.129Z,68.50
2023-04-09T13:37:06.313Z,68.40
2023-04-09T13:41:58.318Z,68.20
2023-04-09T13:46:50.509Z,66.70
2023-04-09T13:51:42.693Z,66.40
2023-04-09T13:56:34.745Z,67.60
2023-04-09T14:01:28.055Z,67.60
2023-04-09T14:06:20.370Z,66.00
2023-04-09T14:11:15.256Z,66.10
2023-04-09T14:16:08.184Z,66.30
2023-04-09T14:21:01.311Z,67.50
2023-04-09T14:25:53.576Z,69.40
2023-04-09T14:30:45.772Z,70.40
2023-04-09T14:35:37.833Z,71.90
2023-04-09T14:40:32.820Z,72.00
2023-04-09T14:45:24.855Z,73.20
2023-04-09T14:50:17.072Z,72.90
2023-04-09T14:55:12.464Z,73.00
2023-04-09T15:00:05.486Z,71.20
2023-04-09T15:04:57.533Z,69.70
2023-04-09T15:09:49.629Z,70.70
2023-04-09T15:14:41.659Z,72.10
2023-04-09T15:19:33.719Z,72.70
2023-04-09T15:24:25.667Z,73.20
2023-04-09T15:29:17.671Z,72.80
2023-04-09T15:34:09.820Z,72.30
2023-04-09T15:39:06.600Z,73.30
2023-04-09T15:43:58.985Z,72.80
2023-04-09T15:48:51.159Z,75.50
2023-04-09T15:53:43.394Z,76.70
2023-04-09T15:58:36.178Z,77.20
2023-04-09T16:03:28.239Z,78.30
2023-04-09T16:08:20.448Z,79.00
2023-04-09T16:13:12.539Z,80.00
2023-04-09T16:18:04.660Z,80.70
2023-04-09T16:22:56.683Z,81.00
2023-04-09T16:27:48.636Z,80.70
2023-04-09T16:32:40.842Z,82.50
2023-04-09T16:37:35.069Z,83.60
2023-04-09T16:42:27.400Z,84.90
2023-04-09T16:47:19.449Z,85.70
2023-04-09T16:52:11.590Z,85.60
2023-04-09T16:57:03.641Z,85.60
2023-04-09T17:01:55.754Z,87.90
2023-04-09T17:06:47.813Z,90.40
2023-04-09T17:11:39.886Z,91.90
2023-04-09T17:16:32.280Z,94.10
2023-04-09T17:21:24.330Z,95.90
2023-04-09T17:26:16.902Z,97.20
2023-04-09T17:31:15.942Z,99.50
2023-04-09T17:36:08.370Z,99.90
2023-04-09T17:41:00.429Z,99.90
2023-04-09T17:45:52.586Z,99.90
2023-04-09T17:50:44.600Z,99.90
2023-04-09T17:55:36.864Z,99.90
2023-04-09T18:00:28.854Z,99.90
2023-04-09T18:05:22.115Z,99.90
2023-04-09T18:10:14.154Z,99.90
2023-04-09T18:15:07.991Z,99.90
2023-04-09T18:19:59.998Z,99.90
2023-04-09T18:24:52.734Z,99.90
2023-04-09T18:29:44.682Z,99.90
2023-04-09T18:34:37.469Z,99.90
2023-04-09T18:39:30.940Z,99.90
2023-04-09T18:44:23.039Z,99.90
2023-04-09T18:49:15.435Z,99.90
2023-04-09T18:54:07.422Z,99.90
2023-04-09T18:58:59.329Z,99.90
2023-04-09T19:03:51.869Z,99.90
2023-04-09T19:08:48.061Z,99.90
2023-04-09T19:13:40.622Z,99.90
2023-04-09T19:18:34.291Z,99.90
2023-04-09T19:23:26.930Z,99.90
2023-04-09T19:28:19.245Z,99.90
2023-04-09T19:33:11.251Z,99.90
2023-04-09T19:38:04.751Z,99.90
2023-04-09T19:42:57.327Z,99.90
2023-04-09T19:47:49.449Z,99.90
2023-04-09T19:52:41.479Z,99.90
2023-04-09T19:57:33.564Z,99.90
2023-04-09T20:02:25.790Z,99.90
2023-04-09T20:07:18.062Z,99.90
2023-04-09T20:12:10.331Z,99.90
2023-04-09T20:17:02.458Z,99.90
2023-04-09T20:22:00.092Z,99.90
2023-04-09T20:26:52.114Z,99.90
2023-04-09T20:31:44.392Z,99.90
2023-04-09T20:36:37.829Z,99.90
2023-04-09T20:41:29.819Z,99.90
2023-04-09T20:46:21.830Z,99.90
2023-04-09T20:51:14.233Z,99.90
2023-04-09T20:56:07.386Z,99.90
2023-04-09T21:01:09.862Z,99.90
2023-04-09T21:06:02.813Z,99.90
2023-04-09T21:10:55.382Z,99.90
2023-04-09T21:15:48.173Z,99.90
2023-04-09T21:20:44.535Z,99.90
2023-04-09T21:25:36.785Z,99.90
2023-04-09T21:30:29.736Z,99.90
2023-04-09T21:35:22.075Z,99.90
2023-04-09T21:40:15.153Z,99.90
2023-04-09T21:45:09.083Z,99.90
2023-04-09T21:50:01.165Z,99.90
2023-04-09T21:54:53.189Z,99.90
2023-04-09T21:59:45.364Z,99.90
2023-04-09T22:04:37.960Z,99.90
2023-04-09T22:09:31.017Z,99.90
2023-04-09T22:14:23.149Z,99.90
2023-04-09T22:19:15.359Z,99.90
2023-04-09T22:24:07.697Z,99.90
2023-04-09T22:28:59.716Z,99.90
2023-04-09T22:33:51.644Z,99.90
2023-04-09T22:38:43.740Z,99.90
2023-04-09T22:43:36.312Z,99.90
2023-04-09T22:48:29.102Z,99.90
2023-04-09T22:53:21.281Z,99.90
2023-04-09T22:58:13.390Z,99.90
2023-04-09T23:03:06.050Z,99.90
2023-04-09T23:07:58.486Z,99.90
2023-04-09T23:12:50.610Z,99.90
2023-04-09T23:17:42.998Z,99.90
2023-04-09T23:22:35.246Z,99.90
2023-04-09T23:27:28.821Z,99.90
2023-04-09T23:32:22.338Z,99.90
2023-04-09T23:37:14.335Z,99.90
2023-04-09T23:42:06.595Z,99.90
2023-04-09T23:46:59.657Z,99.90
2023-04-09T23:51:51.817Z,99.90
2023-04-09T23:56:43.799Z,99.90
